createdAt,value
2023-02-01T00:02:48.709Z,2.61
2023-02-01T00:05:54.516Z,2.51
2023-02-01T00:09:03.981Z,2.51
2023-02-01T00:12:11.201Z,2.11
2023-02-01T00:15:17.452Z,2.18
2023-02-01T00:18:16.682Z,2.35
2023-02-01T00:21:23.353Z,2.44
2023-02-01T00:24:29.574Z,2.43
2023-02-01T00:27:36.463Z,2.33
2023-02-01T00:30:34.548Z,2.35
2023-02-01T00:33:39.794Z,2.22
2023-02-01T00:36:45.951Z,2.31
2023-02-01T00:39:53.162Z,2.29
2023-02-01T00:42:59.040Z,2.14
2023-02-01T00:46:04.721Z,2.07
2023-02-01T00:49:10.716Z,2.23
2023-02-01T00:52:15.765Z,2.29
2023-02-01T00:55:21.373Z,2.32
2023-02-01T00:58:27.589Z,2.36
2023-02-01T01:01:36.686Z,2.30
2023-02-01T01:04:43.320Z,1.98
2023-02-01T01:07:50.168Z,2.20
2023-02-01T01:10:57.250Z,2.08
2023-02-01T01:14:04.810Z,2.04
2023-02-01T01:17:10.533Z,2.01
2023-02-01T01:20:16.800Z,1.99
2023-02-01T01:23:23.741Z,1.67
2023-02-01T01:26:35.684Z,1.60
2023-02-01T01:29:41.706Z,1.84
2023-02-01T01:32:48.004Z,1.40
2023-02-01T01:35:53.899Z,1.53
2023-02-01T01:39:00.594Z,1.63
2023-02-01T01:42:07.437Z,1.70
2023-02-01T01:45:23.026Z,1.82
2023-02-01T01:48:33.210Z,1.86
2023-02-01T01:51:38.375Z,1.95
2023-02-01T01:54:47.746Z,2.03
2023-02-01T01:57:51.043Z,2.02
2023-02-01T02:00:43.665Z,2.13
2023-02-01T02:03:52.691Z,1.97
2023-02-01T02:07:20.452Z,1.98
2023-02-01T02:10:28.154Z,1.96
2023-02-01T02:13:33.833Z,2.07
2023-02-01T02:17:04.147Z,1.87
2023-02-01T02:20:27.790Z,2.14
2023-02-01T02:24:00.392Z,2.18
2023-02-01T02:27:17.483Z,1.73
2023-02-01T02:30:46.328Z,1.98
2023-02-01T02:34:18.742Z,2.01
2023-02-01T02:37:41.530Z,1.70
2023-02-01T02:41:09.288Z,1.82
2023-02-01T02:44:32.300Z,1.93
2023-02-01T02:48:03.403Z,2.07
2023-02-01T02:51:47.634Z,2.04
2023-02-01T02:54:58.205Z,2.10
2023-02-01T02:58:22.781Z,2.19
2023-02-01T03:01:46.646Z,2.25
2023-02-01T03:04:52.542Z,2.34
2023-02-01T03:08:33.308Z,2.38
2023-02-01T03:11:41.709Z,2.41
2023-02-01T03:14:47.456Z,2.45
2023-02-01T03:17:55.237Z,2.08
2023-02-01T03:21:02.831Z,2.37
2023-02-01T03:24:09.402Z,2.42
2023-02-01T03:27:22.456Z,2.43
2023-02-01T03:30:48.153Z,2.14
2023-02-01T03:33:53.546Z,2.06
2023-02-01T03:37:07.209Z,2.13
2023-02-01T03:40:20.687Z,2.12
2023-02-01T03:43:21.786Z,2.22
2023-02-01T03:46:29.435Z,2.24
2023-02-01T03:49:53.446Z,2.26
2023-02-01T03:53:06.130Z,2.29
2023-02-01T03:56:11.435Z,2.44
2023-02-01T03:59:17.225Z,2.40
2023-02-01T04:02:24.127Z,2.33
2023-02-01T04:05:28.971Z,2.33
2023-02-01T04:08:36.273Z,2.36
2023-02-01T04:11:41.870Z,2.30
2023-02-01T04:14:47.794Z,2.27
2023-02-01T04:17:53.373Z,2.38
2023-02-01T04:20:59.018Z,2.28
2023-02-01T04:24:05.818Z,2.14
2023-02-01T04:27:12.698Z,2.15
2023-02-01T04:30:21.046Z,1.99
2023-02-01T04:33:26.765Z,1.86
2023-02-01T04:36:32.408Z,1.54
2023-02-01T04:39:32.451Z,1.64
2023-02-01T04:42:37.892Z,1.56
2023-02-01T04:45:42.400Z,1.66
2023-02-01T04:48:49.447Z,1.76
2023-02-01T04:51:55.315Z,1.54
2023-02-01T04:55:02.020Z,1.63
2023-02-01T04:58:08.606Z,1.78
2023-02-01T05:01:13.376Z,1.49
2023-02-01T05:04:19.196Z,1.49
2023-02-01T05:07:25.715Z,1.48
2023-02-01T05:10:30.659Z,1.64
2023-02-01T05:13:55.102Z,1.82
2023-02-01T05:17:00.271Z,1.54
2023-02-01T05:20:06.824Z,1.64
2023-02-01T05:23:13.729Z,1.28
2023-02-01T05:26:19.894Z,1.23
2023-02-01T05:29:26.881Z,1.33
2023-02-01T05:32:33.128Z,1.68
2023-02-01T05:35:39.957Z,1.45
2023-02-01T05:38:46.216Z,1.47
2023-02-01T05:41:51.154Z,1.54
2023-02-01T05:44:56.903Z,1.73
2023-02-01T05:48:02.421Z,1.96
2023-02-01T05:51:08.753Z,2.05
2023-02-01T05:54:14.521Z,2.17
2023-02-01T05:57:21.750Z,2.33
2023-02-01T06:00:28.915Z,2.39
2023-02-01T06:03:34.712Z,2.54
2023-02-01T06:06:40.408Z,2.55
2023-02-01T06:09:46.626Z,2.62
2023-02-01T06:12:54.184Z,2.62
2023-02-01T06:15:59.874Z,2.42
2023-02-01T06:19:06.201Z,2.48
2023-02-01T06:22:14.334Z,2.35
2023-02-01T06:25:21.563Z,2.33
2023-02-01T06:28:28.006Z,2.44
2023-02-01T06:31:33.446Z,2.41
2023-02-01T06:34:38.389Z,2.54
2023-02-01T06:37:43.824Z,2.66
2023-02-01T06:40:50.232Z,2.68
2023-02-01T06:43:56.886Z,2.70
2023-02-01T06:47:02.990Z,2.76
2023-02-01T06:50:08.470Z,2.95
2023-02-01T06:53:14.708Z,2.87
2023-02-01T06:56:26.438Z,2.93
2023-02-01T06:59:31.981Z,2.99
2023-02-01T07:02:36.813Z,2.81
2023-02-01T07:05:43.296Z,2.97
2023-02-01T07:08:51.738Z,2.97
2023-02-01T07:11:58.381Z,3.14
2023-02-01T07:15:05.095Z,3.35
2023-02-01T07:18:11.639Z,3.60
2023-02-01T07:21:17.695Z,4.60
2023-02-01T07:24:22.787Z,4.41
2023-02-01T07:27:29.245Z,4.25
2023-02-01T07:30:36.359Z,4.26
2023-02-01T07:33:42.527Z,3.88
2023-02-01T07:36:49.832Z,3.91
2023-02-01T07:40:00.117Z,3.46
2023-02-01T07:43:06.978Z,3.46
2023-02-01T07:46:12.822Z,3.43
2023-02-01T07:49:20.614Z,3.53
2023-02-01T07:52:25.668Z,3.44
2023-02-01T07:55:33.149Z,3.44
2023-02-01T07:58:40.086Z,3.35
2023-02-01T08:01:45.794Z,3.35
2023-02-01T08:04:50.587Z,3.20
2023-02-01T08:07:56.045Z,3.29
2023-02-01T08:11:03.223Z,3.35
2023-02-01T08:14:08.730Z,3.34
2023-02-01T08:17:14.076Z,3.45
2023-02-01T08:20:19.600Z,3.38
2023-02-01T08:23:25.291Z,3.32
2023-02-01T08:26:36.141Z,3.11
2023-02-01T08:29:41.456Z,3.30
2023-02-01T08:32:46.884Z,3.54
2023-02-01T08:35:53.217Z,3.64
2023-02-01T08:38:59.729Z,3.64
2023-02-01T08:42:23.136Z,3.85
2023-02-01T08:45:52.193Z,4.16
2023-02-01T08:48:58.707Z,4.30
2023-02-01T08:52:10.638Z,4.51
2023-02-01T08:55:13.440Z,4.41
2023-02-01T08:58:22.130Z,4.59
2023-02-01T09:01:30.146Z,4.65
2023-02-01T09:04:35.686Z,4.75
2023-02-01T09:07:40.872Z,4.92
2023-02-01T09:10:46.902Z,5.20
2023-02-01T09:13:52.912Z,5.15
2023-02-01T09:16:59.684Z,5.01
2023-02-01T09:20:05.628Z,5.00
2023-02-01T09:23:13.973Z,5.20
2023-02-01T09:26:22.944Z,5.30
2023-02-01T09:29:30.684Z,5.31
2023-02-01T09:32:38.110Z,5.21
2023-02-01T09:35:46.402Z,5.37
2023-02-01T09:38:53.157Z,5.26
2023-02-01T09:42:24.895Z,5.56
2023-02-01T09:45:49.900Z,5.28
2023-02-01T09:48:55.710Z,5.10
2023-02-01T09:52:03.949Z,4.83
2023-02-01T09:55:15.996Z,4.75
2023-02-01T09:58:47.606Z,4.97
2023-02-01T10:01:52.995Z,4.68
2023-02-01T10:04:59.445Z,4.96
2023-02-01T10:08:18.304Z,5.08
2023-02-01T10:11:52.390Z,5.20
2023-02-01T10:15:32.669Z,5.23
2023-02-01T10:19:02.272Z,5.16
2023-02-01T10:22:41.042Z,5.04
2023-02-01T10:25:57.540Z,4.83
2023-02-01T10:28:50.996Z,4.49
2023-02-01T10:31:57.346Z,4.30
2023-02-01T10:35:14.587Z,4.14
2023-02-01T10:38:22.920Z,4.14
2023-02-01T10:41:37.355Z,4.17
2023-02-01T10:44:43.607Z,3.80
2023-02-01T10:47:49.311Z,3.87
2023-02-01T10:51:03.993Z,3.91
2023-02-01T10:53:59.755Z,3.86
2023-02-01T10:57:05.053Z,3.53
2023-02-01T11:00:11.998Z,3.18
2023-02-01T11:03:17.457Z,3.12
2023-02-01T11:06:30.476Z,3.26
2023-02-01T11:09:39.541Z,3.55
2023-02-01T11:12:49.729Z,3.51
2023-02-01T11:15:55.449Z,3.56
2023-02-01T11:19:00.670Z,3.38
2023-02-01T11:22:11.233Z,3.27
2023-02-01T11:25:17.679Z,3.33
2023-02-01T11:28:23.802Z,3.22
2023-02-01T11:31:29.655Z,3.26
2023-02-01T11:34:37.415Z,3.14
2023-02-01T11:37:55.314Z,3.15
2023-02-01T11:41:00.986Z,3.21
2023-02-01T11:44:15.709Z,3.26
2023-02-01T11:47:42.314Z,3.36
2023-02-01T11:51:07.343Z,3.29
2023-02-01T11:54:46.879Z,3.43
2023-02-01T11:58:21.969Z,3.42
2023-02-01T12:01:49.310Z,3.31
2023-02-01T12:05:13.485Z,3.44
2023-02-01T12:08:35.982Z,3.28
2023-02-01T12:11:54.791Z,3.35
2023-02-01T12:15:25.542Z,3.20
2023-02-01T12:18:41.903Z,3.08
2023-02-01T12:22:01.416Z,3.05
2023-02-01T12:25:24.193Z,3.10
2023-02-01T12:29:22.499Z,3.13
2023-02-01T12:32:55.953Z,3.21
2023-02-01T12:36:25.071Z,3.31
2023-02-01T12:39:46.234Z,3.19
2023-02-01T12:43:25.565Z,3.31
2023-02-01T12:46:57.912Z,3.12
2023-02-01T12:50:12.154Z,3.10
2023-02-01T12:53:32.038Z,3.05
2023-02-01T12:56:54.038Z,3.00
2023-02-01T13:00:19.323Z,3.07
2023-02-01T13:04:08.374Z,3.10
2023-02-01T13:07:24.060Z,3.13
2023-02-01T13:10:51.394Z,3.02
2023-02-01T13:14:34.689Z,3.16
2023-02-01T13:17:43.172Z,3.10
2023-02-01T13:20:55.441Z,3.00
2023-02-01T13:24:03.458Z,2.91
2023-02-01T13:27:10.182Z,2.95
2023-02-01T13:30:25.896Z,2.53
2023-02-01T13:33:56.733Z,2.37
2023-02-01T13:37:35.201Z,2.35
2023-02-01T13:41:10.612Z,2.58
2023-02-01T13:44:23.001Z,2.77
2023-02-01T13:47:42.364Z,2.81
2023-02-01T13:50:52.820Z,2.56
2023-02-01T13:54:03.401Z,2.48
2023-02-01T13:57:09.323Z,2.47
2023-02-01T14:00:45.633Z,2.44
2023-02-01T14:04:02.635Z,2.42
2023-02-01T14:07:09.796Z,2.44
2023-02-01T14:10:52.896Z,2.44
2023-02-01T14:13:59.248Z,2.44
2023-02-01T14:17:18.837Z,2.43
2023-02-01T14:21:00.452Z,2.62
2023-02-01T14:24:14.890Z,2.63
2023-02-01T14:27:35.894Z,2.64
2023-02-01T14:30:41.634Z,2.59
2023-02-01T14:33:47.863Z,2.16
2023-02-01T14:37:00.383Z,2.14
2023-02-01T14:40:18.775Z,2.16
2023-02-01T14:43:32.617Z,1.99
2023-02-01T14:46:31.798Z,1.89
2023-02-01T14:49:37.416Z,1.65
2023-02-01T14:53:27.582Z,1.57
2023-02-01T14:56:33.607Z,1.49
2023-02-01T14:59:41.699Z,1.56
2023-02-01T15:02:47.750Z,1.61
2023-02-01T15:05:55.318Z,1.67
2023-02-01T15:09:02.447Z,1.67
2023-02-01T15:12:22.288Z,1.74
2023-02-01T15:15:39.610Z,1.89
2023-02-01T15:18:44.931Z,1.95
2023-02-01T15:21:59.193Z,1.96
2023-02-01T15:25:10.422Z,1.92
2023-02-01T15:28:16.099Z,1.91
2023-02-01T15:31:23.171Z,1.94
2023-02-01T15:34:28.658Z,1.92
2023-02-01T15:37:36.217Z,2.02
2023-02-01T15:40:42.198Z,1.96
2023-02-01T15:44:02.341Z,1.99
2023-02-01T15:47:08.460Z,1.99
2023-02-01T15:50:16.005Z,2.30
2023-02-01T15:53:18.517Z,2.08
2023-02-01T15:56:23.488Z,2.16
2023-02-01T15:59:32.558Z,2.28
2023-02-01T16:02:52.506Z,2.14
2023-02-01T16:05:58.630Z,2.18
2023-02-01T16:09:26.048Z,2.12
2023-02-01T16:12:44.186Z,2.02
2023-02-01T16:15:51.463Z,1.95
2023-02-01T16:18:57.547Z,1.84
2023-02-01T16:22:03.392Z,1.90
2023-02-01T16:25:02.699Z,1.87
2023-02-01T16:27:49.020Z,1.90
2023-02-01T16:30:41.906Z,1.81
2023-02-01T16:33:35.672Z,1.74
2023-02-01T16:36:41.750Z,1.71
2023-02-01T16:39:48.786Z,1.73
2023-02-01T16:42:55.825Z,1.75
2023-02-01T16:46:03.830Z,1.56
2023-02-01T16:49:12.204Z,1.53
2023-02-01T16:52:17.143Z,1.49
2023-02-01T16:55:31.839Z,1.51
2023-02-01T16:58:38.467Z,1.52
2023-02-01T17:01:49.772Z,1.39
2023-02-01T17:04:56.802Z,1.46
2023-02-01T17:08:03.412Z,1.50
2023-02-01T17:11:09.018Z,1.46
2023-02-01T17:14:33.653Z,1.54
2023-02-01T17:17:40.241Z,1.61
2023-02-01T17:20:47.935Z,1.65
2023-02-01T17:23:54.257Z,1.68
2023-02-01T17:27:00.449Z,1.69
2023-02-01T17:30:07.240Z,1.66
2023-02-01T17:33:21.821Z,1.65
2023-02-01T17:36:20.682Z,1.65
2023-02-01T17:39:43.029Z,1.77
2023-02-01T17:42:48.924Z,1.51
2023-02-01T17:46:09.888Z,1.52
2023-02-01T17:49:15.184Z,1.39
2023-02-01T17:52:23.594Z,1.57
2023-02-01T17:55:36.839Z,1.63
2023-02-01T17:58:42.623Z,1.48
2023-02-01T18:01:48.835Z,1.35
2023-02-01T18:04:47.364Z,1.32
2023-02-01T18:07:53.880Z,1.43
2023-02-01T18:11:01.422Z,1.39
2023-02-01T18:14:08.137Z,1.41
2023-02-01T18:17:14.159Z,1.47
2023-02-01T18:20:22.841Z,1.54
2023-02-01T18:23:34.118Z,1.57
2023-02-01T18:26:39.824Z,1.56
2023-02-01T18:29:46.073Z,1.79
2023-02-01T18:32:52.528Z,1.76
2023-02-01T18:35:52.294Z,1.72
2023-02-01T18:38:58.061Z,1.88
2023-02-01T18:42:04.341Z,1.84
2023-02-01T18:45:10.277Z,1.82
2023-02-01T18:48:19.791Z,1.75
2023-02-01T18:51:27.831Z,1.74
2023-02-01T18:54:32.882Z,1.79
2023-02-01T18:57:40.582Z,1.73
2023-02-01T19:00:46.130Z,1.64
2023-02-01T19:03:55.494Z,1.72
2023-02-01T19:07:01.461Z,1.67
2023-02-01T19:10:08.344Z,1.69
2023-02-01T19:13:14.895Z,1.71
2023-02-01T19:16:26.166Z,1.78
2023-02-01T19:19:31.810Z,1.70
2023-02-01T19:22:37.893Z,1.62
2023-02-01T19:25:37.228Z,1.51
2023-02-01T19:28:44.334Z,1.62
2023-02-01T19:31:51.188Z,1.73
2023-02-01T19:34:57.763Z,1.76
2023-02-01T19:38:04.549Z,1.75
2023-02-01T19:41:13.583Z,1.71
2023-02-01T19:44:12.674Z,1.53
2023-02-01T19:47:20.263Z,1.41
2023-02-01T19:50:31.826Z,1.43
2023-02-01T19:53:38.168Z,1.36
2023-02-01T19:56:44.150Z,1.35
2023-02-01T19:59:51.086Z,1.35
2023-02-01T20:02:56.138Z,1.30
2023-02-01T20:06:07.565Z,1.21
2023-02-01T20:09:12.938Z,1.18
2023-02-01T20:12:19.085Z,1.23
2023-02-01T20:15:25.801Z,1.27
2023-02-01T20:18:31.802Z,1.25
2023-02-01T20:21:37.627Z,1.35
2023-02-01T20:24:42.961Z,1.46
2023-02-01T20:27:49.961Z,1.64
2023-02-01T20:31:01.097Z,1.37
2023-02-01T20:34:07.222Z,1.24
2023-02-01T20:37:13.808Z,1.15
2023-02-01T20:40:20.766Z,1.20
2023-02-01T20:43:26.143Z,1.14
2023-02-01T20:46:32.473Z,1.13
2023-02-01T20:49:39.038Z,1.17
2023-02-01T20:52:44.838Z,1.18
2023-02-01T20:55:49.939Z,1.21
2023-02-01T20:58:55.759Z,1.16
2023-02-01T21:02:02.209Z,1.20
2023-02-01T21:05:07.941Z,1.28
2023-02-01T21:08:13.390Z,1.24
2023-02-01T21:11:25.790Z,1.30
2023-02-01T21:14:30.751Z,1.31
2023-02-01T21:17:35.849Z,1.36
2023-02-01T21:20:43.309Z,1.39
2023-02-01T21:23:56.476Z,1.37
2023-02-01T21:27:02.821Z,1.37
2023-02-01T21:30:08.803Z,1.35
2023-02-01T21:33:15.325Z,1.32
2023-02-01T21:36:23.414Z,1.30
2023-02-01T21:39:29.436Z,1.38
2023-02-01T21:42:35.937Z,1.42
2023-02-01T21:45:46.122Z,1.36
2023-02-01T21:49:04.418Z,1.42
2023-02-01T21:51:56.773Z,1.39
2023-02-01T21:55:06.350Z,1.51
2023-02-01T21:58:13.697Z,1.53
2023-02-01T22:01:18.922Z,1.55
2023-02-01T22:04:25.502Z,1.60
2023-02-01T22:07:33.009Z,1.69
2023-02-01T22:10:38.212Z,1.78
2023-02-01T22:13:43.989Z,1.92
2023-02-01T22:16:49.507Z,2.00
2023-02-01T22:19:54.753Z,2.07
2023-02-01T22:23:03.319Z,2.19
2023-02-01T22:26:18.063Z,2.29
2023-02-01T22:29:24.813Z,2.32
2023-02-01T22:32:32.321Z,2.37
2023-02-01T22:35:37.099Z,2.36
2023-02-01T22:38:44.312Z,2.33
2023-02-01T22:41:50.012Z,2.30
2023-02-01T22:44:55.742Z,2.54
2023-02-01T22:48:03.554Z,2.33
2023-02-01T22:51:14.104Z,2.24
2023-02-01T22:54:20.348Z,2.18
2023-02-01T22:57:25.835Z,2.29
2023-02-01T23:00:31.840Z,2.25
2023-02-01T23:03:38.710Z,2.19
2023-02-01T23:06:51.277Z,2.21
2023-02-01T23:09:58.143Z,2.22
2023-02-01T23:13:03.606Z,2.20
2023-02-01T23:16:09.535Z,2.19
2023-02-01T23:19:14.849Z,2.29
2023-02-01T23:22:20.730Z,2.34
2023-02-01T23:25:27.951Z,2.26
2023-02-01T23:28:33.720Z,2.29
2023-02-01T23:31:44.162Z,2.26
2023-02-01T23:34:49.673Z,2.16
2023-02-01T23:37:56.242Z,2.05
2023-02-01T23:41:02.017Z,2.09
2023-02-01T23:44:08.585Z,2.00
2023-02-01T23:47:08.169Z,2.01
2023-02-01T23:50:13.501Z,1.89
2023-02-01T23:53:19.458Z,1.75
2023-02-01T23:56:43.514Z,1.75
2023-02-01T23:59:50.679Z,1.76
